Kezdőlap
METAR-TAF:

METAR-TAF

Repülőterek :

Hassi R’mel, Algéria

földrajzi szélesség: 32-55-48N, földrajzi hosszúság: 003-18-44E, magasság: 774 m

Jelenlegi meteorológiai megfigyelések

A jelentés 19 perccel ezelõtt készült, 12:00 UTC
Észak-északnyugati szél 15 kt
Hőmérséklet 25°C
Páratartalom 28%
Légköri nyomás 1012 hPa
Látótávolság: 4000 m
alacsony homokvihar,

METAR: DAFH 201200Z 33015KT 4000 DRSA NSC 25/05 Q1012

Idő: 13:19 (12:19 UTC)

Előrejelzés

A jelentés 1 órával és 19 perccel ezelõtt készült, 11:00 UTC
Az előrejelzés 20-én 12 óra UTC és 20-én 21 óra UTC között érvényes
Északnyugati szél 14 kt
Látótávolság: 3000 m
alacsony homokvihar
20-én 12 óra UTC és 20-én 15 óra UTC között ideiglenes
Északnyugati szél 15 kt széllökések: 30 kt
Látótávolság: 1500 m
Kevés felhő 3000 lábon, Cumulonimbus.

TAF: DAFH 201100Z 2012/2021 32014KT 3000 DRSA NSC TEMPO 2012/2015 32015G30KT 1500 FEW030CB

Meteorológiai megfigyelések és előrejelzések több, mint 4000 repülőtéren (METAR és TAF jelentéseket).

A térképen piros és sárga pontok jelzik az elérhető meteorológiai állomásokat.

Mozgassa az egeret a pont fölött, hogy megjelenjen az állomás neve.

Azután kattintson az időjárási megfigyelések és előrejelzések megtekintéséhez.

A térkép megváltoztatása: kattintson a fekete keresztel jelölt zöld gombra ráközelítéshez, a vonallal jelölt zöld gombra távolításhoz, vagy a zöld nyilakra a szomszédos térképek eléréséhez.


METAR-TAF: